createdAt,value
2022-07-29T00:00:00.319Z,73
2022-07-29T00:05:00.261Z,74
2022-07-29T00:10:00.199Z,74
2022-07-29T00:15:00.209Z,74
2022-07-29T00:20:00.187Z,74
2022-07-29T00:25:00.196Z,75
2022-07-29T00:30:00.184Z,75
2022-07-29T00:35:00.159Z,75
2022-07-29T00:40:00.206Z,75
2022-07-29T00:45:00.184Z,76
2022-07-29T00:50:00.235Z,76
2022-07-29T01:00:00.262Z,77
2022-07-29T01:05:00.180Z,76
2022-07-29T01:10:00.211Z,76
2022-07-29T01:15:00.223Z,77
2022-07-29T01:20:00.209Z,77
2022-07-29T01:25:00.170Z,76
2022-07-29T01:30:00.209Z,77
2022-07-29T01:35:00.174Z,77
2022-07-29T01:40:00.288Z,77
2022-07-29T01:45:00.227Z,77
2022-07-29T01:50:00.212Z,77
2022-07-29T01:55:00.199Z,77
2022-07-29T02:00:00.231Z,77
2022-07-29T02:05:00.261Z,77
2022-07-29T02:10:00.209Z,77
2022-07-29T02:15:00.188Z,77
2022-07-29T02:20:00.267Z,76
2022-07-29T02:25:00.975Z,76
2022-07-29T02:30:00.204Z,76
2022-07-29T02:35:00.176Z,76
2022-07-29T02:40:00.193Z,75
2022-07-29T02:45:00.194Z,75
2022-07-29T02:50:00.430Z,75
2022-07-29T02:55:00.191Z,75
2022-07-29T03:00:00.276Z,75
2022-07-29T03:05:00.283Z,76
2022-07-29T03:10:00.186Z,76
2022-07-29T03:15:00.188Z,76
2022-07-29T03:20:00.210Z,75
2022-07-29T03:25:00.178Z,75
2022-07-29T03:30:00.193Z,75
2022-07-29T03:35:00.177Z,76
2022-07-29T03:40:00.173Z,75
2022-07-29T03:45:00.195Z,76
2022-07-29T03:50:00.195Z,75
2022-07-29T03:55:00.174Z,76
2022-07-29T04:00:00.232Z,76
2022-07-29T04:05:00.174Z,77
2022-07-29T04:10:00.186Z,80
2022-07-29T04:15:00.189Z,81
2022-07-29T04:20:00.197Z,82
2022-07-29T04:25:03.690Z,82
2022-07-29T04:30:00.193Z,84
2022-07-29T04:35:00.181Z,83
2022-07-29T04:40:00.235Z,83
2022-07-29T04:45:01.316Z,84
2022-07-29T04:50:00.175Z,87
2022-07-29T04:55:00.202Z,86
2022-07-29T05:00:00.217Z,88
2022-07-29T05:05:00.193Z,86
2022-07-29T05:10:00.206Z,87
2022-07-29T05:15:00.170Z,87
2022-07-29T05:20:00.188Z,87
2022-07-29T05:25:03.221Z,88
2022-07-29T05:30:00.181Z,88
2022-07-29T05:35:00.199Z,86
2022-07-29T05:40:00.192Z,87
2022-07-29T05:45:00.215Z,87
2022-07-29T05:50:00.199Z,87
2022-07-29T05:55:00.187Z,88
2022-07-29T06:00:00.286Z,88
2022-07-29T06:05:00.273Z,86
2022-07-29T06:10:00.198Z,84
2022-07-29T06:15:00.159Z,84
2022-07-29T06:20:00.242Z,86
2022-07-29T06:25:00.185Z,84
2022-07-29T06:30:00.195Z,84
2022-07-29T06:35:24.418Z,85
2022-07-29T06:40:00.199Z,85
2022-07-29T06:45:00.187Z,83
2022-07-29T06:50:00.196Z,83
2022-07-29T06:55:00.193Z,80
2022-07-29T07:00:00.237Z,83
2022-07-29T07:05:00.191Z,83
2022-07-29T07:10:00.208Z,81
2022-07-29T07:15:00.188Z,81
2022-07-29T07:20:00.188Z,81
2022-07-29T07:25:00.211Z,82
2022-07-29T07:30:00.194Z,82
2022-07-29T07:35:00.207Z,78
2022-07-29T07:40:00.229Z,78
2022-07-29T07:45:13.016Z,77
2022-07-29T07:50:00.207Z,78
2022-07-29T07:55:00.184Z,77
2022-07-29T08:00:00.214Z,77
2022-07-29T08:05:00.193Z,76
2022-07-29T08:10:00.179Z,77
2022-07-29T08:15:00.193Z,76
2022-07-29T08:20:00.211Z,74
2022-07-29T08:25:00.205Z,74
2022-07-29T08:30:00.212Z,76
2022-07-29T08:35:00.187Z,74
2022-07-29T08:40:00.181Z,73
2022-07-29T08:45:00.184Z,77
2022-07-29T08:50:00.197Z,73
2022-07-29T08:55:00.182Z,74
2022-07-29T09:00:04.844Z,73
2022-07-29T09:05:00.199Z,73
2022-07-29T09:10:00.185Z,72
2022-07-29T09:15:00.198Z,71
2022-07-29T09:20:00.226Z,73
2022-07-29T09:25:00.183Z,72
2022-07-29T09:30:00.264Z,72
2022-07-29T09:35:00.197Z,70
2022-07-29T09:40:00.186Z,72
2022-07-29T09:45:00.187Z,71
2022-07-29T09:50:00.508Z,71
2022-07-29T09:55:00.217Z,71
2022-07-29T10:00:00.218Z,72
2022-07-29T10:05:00.192Z,69
2022-07-29T10:10:00.200Z,69
2022-07-29T10:15:00.169Z,68
2022-07-29T10:20:00.196Z,69
2022-07-29T10:25:00.194Z,70
2022-07-29T10:30:00.187Z,69
2022-07-29T10:35:00.176Z,68
2022-07-29T10:40:00.194Z,68
2022-07-29T10:45:00.185Z,68
2022-07-29T10:50:01.283Z,67
2022-07-29T10:55:00.217Z,65
2022-07-29T11:00:00.200Z,65
2022-07-29T11:05:00.219Z,66
2022-07-29T11:10:00.190Z,64
2022-07-29T11:15:00.455Z,65
2022-07-29T11:20:00.203Z,64
2022-07-29T11:25:00.190Z,65
2022-07-29T11:30:01.163Z,64
2022-07-29T11:35:00.195Z,63
2022-07-29T11:40:02.292Z,62
2022-07-29T11:45:04.373Z,60
2022-07-29T11:50:00.199Z,57
2022-07-29T11:55:00.791Z,56
2022-07-29T12:00:04.602Z,56
2022-07-29T12:05:00.166Z,56
2022-07-29T12:10:00.194Z,55
2022-07-29T12:15:00.190Z,55
2022-07-29T12:20:00.195Z,51
2022-07-29T12:25:11.428Z,52
2022-07-29T12:30:00.211Z,50
2022-07-29T12:35:00.200Z,52
2022-07-29T12:40:00.195Z,51
2022-07-29T12:45:00.181Z,49
2022-07-29T12:50:00.208Z,48
2022-07-29T12:55:00.196Z,50
2022-07-29T13:00:00.211Z,49
2022-07-29T13:05:00.160Z,50
2022-07-29T13:10:00.198Z,50
2022-07-29T13:15:00.206Z,48
2022-07-29T13:20:00.167Z,46
2022-07-29T13:25:00.189Z,48
2022-07-29T13:30:00.202Z,46
2022-07-29T13:35:00.191Z,49
2022-07-29T13:40:00.268Z,48
2022-07-29T13:45:00.213Z,48
2022-07-29T13:50:00.231Z,48
2022-07-29T13:55:00.185Z,46
2022-07-29T14:00:00.223Z,45
2022-07-29T14:05:03.771Z,47
2022-07-29T14:10:00.189Z,47
2022-07-29T14:15:00.192Z,45
2022-07-29T14:20:00.200Z,42
2022-07-29T14:25:09.996Z,44
2022-07-29T14:30:00.203Z,44
2022-07-29T14:35:00.194Z,40
2022-07-29T14:40:00.203Z,42
2022-07-29T14:45:00.188Z,39
2022-07-29T14:50:00.212Z,41
2022-07-29T14:55:00.176Z,40
2022-07-29T15:00:00.269Z,43
2022-07-29T15:05:00.181Z,42
2022-07-29T15:10:00.196Z,40
2022-07-29T15:15:00.184Z,40
2022-07-29T15:20:00.198Z,39
2022-07-29T15:25:00.179Z,40
2022-07-29T15:30:00.184Z,38
2022-07-29T15:35:00.207Z,39
2022-07-29T15:40:00.441Z,38
2022-07-29T15:45:00.243Z,39
2022-07-29T15:50:00.207Z,38
2022-07-29T15:55:00.199Z,40
2022-07-29T16:00:00.213Z,38
2022-07-29T16:05:00.188Z,40
2022-07-29T16:10:00.201Z,39
2022-07-29T16:15:00.381Z,39
2022-07-29T16:20:00.191Z,41
2022-07-29T16:25:00.208Z,44
